LGL125 ELLX-LSGG
Flight info
| Callsign | LGL125 |
|---|---|
| Flight time | 0h 58m |
| Altitude | 23000 |
| Route | GTQ A242 POGOL DCT LASAT DCT MOROK Z24 AKITO |
| Aircraft | DH8D/M-SDE2E3FGRY/H |
Departure
| Time | 2026-05-01 11:57 |
|---|---|
| Airport | Luxembourg-Findel International Airport (ELLX) |
Arrival
| Time | 2026-05-01 12:56 |
|---|---|
| Airport | Geneva International Airport (LSGG) |
| Time | Latitude | Longitude | Altitude | Speed | Heading |
|---|---|---|---|---|---|
| 2026-05-01 11:48 | 49.63196 | 6.21639 | 1229 ft | 0 kts | 240° |
| 2026-05-01 11:52 | 49.63195 | 6.21638 | 1229 ft | 0 kts | 240° |
| 2026-05-01 11:52 | 49.63193 | 6.21633 | 1230 ft | 1 kts | 240° |
| 2026-05-01 11:52 | 49.63167 | 6.21595 | 1230 ft | 6 kts | 184° |
| 2026-05-01 11:53 | 49.63124 | 6.21623 | 1227 ft | 7 kts | 150° |
| 2026-05-01 11:53 | 49.63074 | 6.21626 | 1225 ft | 7 kts | 227° |
| 2026-05-01 11:53 | 49.63031 | 6.21494 | 1226 ft | 23 kts | 244° |
| 2026-05-01 11:53 | 49.62940 | 6.21201 | 1233 ft | 35 kts | 244° |
| 2026-05-01 11:54 | 49.62844 | 6.20899 | 1236 ft | 28 kts | 243° |
| 2026-05-01 11:54 | 49.62750 | 6.20672 | 1232 ft | 22 kts | 216° |
| 2026-05-01 11:54 | 49.62637 | 6.20536 | 1227 ft | 20 kts | 230° |
| 2026-05-01 11:54 | 49.62551 | 6.20380 | 1223 ft | 18 kts | 232° |
| 2026-05-01 11:55 | 49.62477 | 6.20227 | 1218 ft | 17 kts | 235° |
| 2026-05-01 11:55 | 49.62415 | 6.20061 | 1210 ft | 19 kts | 240° |
| 2026-05-01 11:55 | 49.62345 | 6.19874 | 1203 ft | 20 kts | 239° |
| 2026-05-01 11:55 | 49.62273 | 6.19681 | 1192 ft | 21 kts | 239° |
| 2026-05-01 11:56 | 49.62170 | 6.19573 | 1186 ft | 18 kts | 156° |
| 2026-05-01 11:56 | 49.62098 | 6.19664 | 1189 ft | 9 kts | 89° |
| 2026-05-01 11:56 | 49.62111 | 6.19712 | 1191 ft | 3 kts | 62° |
| 2026-05-01 11:56 | 49.62232 | 6.20042 | 1207 ft | 78 kts | 60° |
| 2026-05-01 11:57 | 49.62625 | 6.21093 | 1225 ft | 144 kts | 62° |
| 2026-05-01 11:57 | 49.62963 | 6.22039 | 1400 ft | 153 kts | 65° |
| 2026-05-01 11:57 | 49.63602 | 6.24043 | 2090 ft | 166 kts | 64° |
| 2026-05-01 11:57 | 49.64168 | 6.25626 | 2676 ft | 174 kts | 65° |
| 2026-05-01 11:58 | 49.64665 | 6.27392 | 3161 ft | 180 kts | 86° |
| 2026-05-01 11:58 | 49.64279 | 6.29141 | 3680 ft | 181 kts | 133° |
| 2026-05-01 11:58 | 49.62329 | 6.31626 | 4895 ft | 187 kts | 140° |
| 2026-05-01 11:59 | 49.61311 | 6.32876 | 5500 ft | 189 kts | 141° |
| 2026-05-01 11:59 | 49.60253 | 6.34176 | 5892 ft | 198 kts | 141° |
| 2026-05-01 11:59 | 49.59182 | 6.35493 | 6485 ft | 198 kts | 141° |
| 2026-05-01 12:00 | 49.57041 | 6.38127 | 7597 ft | 200 kts | 141° |
| 2026-05-01 12:00 | 49.55941 | 6.39458 | 8114 ft | 202 kts | 144° |
| 2026-05-01 12:00 | 49.53410 | 6.41380 | 9123 ft | 207 kts | 155° |
| 2026-05-01 12:01 | 49.52095 | 6.42279 | 9624 ft | 209 kts | 154° |
| 2026-05-01 12:01 | 49.50775 | 6.43184 | 10126 ft | 210 kts | 154° |
| 2026-05-01 12:01 | 49.49436 | 6.44106 | 10631 ft | 211 kts | 154° |
| 2026-05-01 12:01 | 49.48086 | 6.45036 | 11102 ft | 213 kts | 154° |
| 2026-05-01 12:02 | 49.46736 | 6.45969 | 11568 ft | 215 kts | 154° |
| 2026-05-01 12:02 | 49.45390 | 6.46899 | 12030 ft | 216 kts | 154° |
| 2026-05-01 12:02 | 49.44012 | 6.47852 | 12479 ft | 217 kts | 154° |
| 2026-05-01 12:02 | 49.42648 | 6.48795 | 12919 ft | 217 kts | 154° |
| 2026-05-01 12:03 | 49.41267 | 6.49751 | 13358 ft | 217 kts | 153° |
| 2026-05-01 12:03 | 49.39891 | 6.50702 | 13785 ft | 217 kts | 153° |
| 2026-05-01 12:03 | 49.38529 | 6.51643 | 14193 ft | 217 kts | 153° |
| 2026-05-01 12:03 | 49.37168 | 6.52583 | 14585 ft | 216 kts | 154° |
| 2026-05-01 12:04 | 49.35784 | 6.53538 | 14973 ft | 216 kts | 153° |
| 2026-05-01 12:04 | 49.34416 | 6.54482 | 15343 ft | 216 kts | 153° |
| 2026-05-01 12:04 | 49.33044 | 6.55428 | 15699 ft | 216 kts | 153° |
| 2026-05-01 12:04 | 49.31683 | 6.56366 | 16038 ft | 216 kts | 153° |
| 2026-05-01 12:05 | 49.30317 | 6.57307 | 16372 ft | 215 kts | 153° |
| 2026-05-01 12:05 | 49.27599 | 6.59177 | 16990 ft | 216 kts | 153° |
| 2026-05-01 12:05 | 49.26223 | 6.60122 | 17283 ft | 216 kts | 153° |
| 2026-05-01 12:06 | 49.24864 | 6.61056 | 17567 ft | 216 kts | 154° |
| 2026-05-01 12:06 | 49.23486 | 6.61982 | 17848 ft | 216 kts | 154° |
| 2026-05-01 12:06 | 49.22067 | 6.62717 | 18113 ft | 218 kts | 162° |
| 2026-05-01 12:06 | 49.20586 | 6.63280 | 18375 ft | 218 kts | 163° |
| 2026-05-01 12:07 | 49.19117 | 6.63830 | 18625 ft | 218 kts | 163° |
| 2026-05-01 12:07 | 49.17648 | 6.64381 | 18859 ft | 219 kts | 163° |
| 2026-05-01 12:07 | 49.16174 | 6.64935 | 19084 ft | 219 kts | 163° |
| 2026-05-01 12:07 | 49.14668 | 6.65503 | 19308 ft | 220 kts | 163° |
| 2026-05-01 12:08 | 49.13193 | 6.66060 | 19523 ft | 221 kts | 163° |
| 2026-05-01 12:08 | 49.11689 | 6.66628 | 19741 ft | 221 kts | 164° |
| 2026-05-01 12:08 | 49.10210 | 6.67188 | 19948 ft | 221 kts | 164° |
| 2026-05-01 12:08 | 49.08709 | 6.67756 | 20149 ft | 221 kts | 164° |
| 2026-05-01 12:09 | 49.07223 | 6.68319 | 20345 ft | 222 kts | 164° |
| 2026-05-01 12:09 | 49.05730 | 6.68884 | 20541 ft | 222 kts | 164° |
| 2026-05-01 12:09 | 49.04230 | 6.69450 | 20735 ft | 223 kts | 164° |
| 2026-05-01 12:09 | 49.02713 | 6.70023 | 20924 ft | 223 kts | 164° |
| 2026-05-01 12:10 | 49.01216 | 6.70589 | 21109 ft | 223 kts | 163° |
| 2026-05-01 12:10 | 48.98175 | 6.71574 | 21447 ft | 226 kts | 175° |
| 2026-05-01 12:10 | 48.96586 | 6.71556 | 21598 ft | 227 kts | 180° |
| 2026-05-01 12:11 | 48.93442 | 6.71397 | 21892 ft | 228 kts | 180° |
| 2026-05-01 12:11 | 48.91841 | 6.71323 | 22040 ft | 228 kts | 180° |
| 2026-05-01 12:11 | 48.90267 | 6.71253 | 22185 ft | 228 kts | 180° |
| 2026-05-01 12:12 | 48.88678 | 6.71184 | 22325 ft | 228 kts | 180° |
| 2026-05-01 12:12 | 48.87077 | 6.71116 | 22462 ft | 228 kts | 180° |
| 2026-05-01 12:12 | 48.85492 | 6.71051 | 22593 ft | 229 kts | 180° |
| 2026-05-01 12:12 | 48.83900 | 6.70986 | 22726 ft | 229 kts | 180° |
| 2026-05-01 12:13 | 48.82304 | 6.70920 | 22861 ft | 230 kts | 180° |
| 2026-05-01 12:13 | 48.80714 | 6.70857 | 22988 ft | 230 kts | 179° |
| 2026-05-01 12:13 | 48.79123 | 6.70793 | 23111 ft | 230 kts | 179° |
| 2026-05-01 12:13 | 48.77529 | 6.70729 | 23230 ft | 231 kts | 179° |
| 2026-05-01 12:14 | 48.75911 | 6.70665 | 23347 ft | 231 kts | 179° |
| 2026-05-01 12:14 | 48.74306 | 6.70602 | 23460 ft | 231 kts | 179° |
| 2026-05-01 12:14 | 48.72706 | 6.70539 | 23568 ft | 231 kts | 180° |
| 2026-05-01 12:14 | 48.71092 | 6.70475 | 23668 ft | 232 kts | 180° |
| 2026-05-01 12:15 | 48.69459 | 6.70413 | 23586 ft | 242 kts | 180° |
| 2026-05-01 12:15 | 48.67743 | 6.70349 | 23458 ft | 253 kts | 180° |
| 2026-05-01 12:15 | 48.65938 | 6.70282 | 23327 ft | 265 kts | 180° |
| 2026-05-01 12:15 | 48.64063 | 6.70212 | 23276 ft | 273 kts | 180° |
| 2026-05-01 12:16 | 48.62133 | 6.70139 | 23261 ft | 280 kts | 180° |
| 2026-05-01 12:16 | 48.60173 | 6.70067 | 23255 ft | 286 kts | 180° |
| 2026-05-01 12:16 | 48.58173 | 6.69992 | 23252 ft | 292 kts | 180° |
| 2026-05-01 12:16 | 48.56116 | 6.69915 | 23251 ft | 297 kts | 180° |
| 2026-05-01 12:17 | 48.54046 | 6.69837 | 23249 ft | 303 kts | 180° |
| 2026-05-01 12:17 | 48.51907 | 6.69756 | 23251 ft | 308 kts | 180° |
| 2026-05-01 12:17 | 48.49777 | 6.69676 | 23251 ft | 312 kts | 180° |
| 2026-05-01 12:17 | 48.47582 | 6.69592 | 23252 ft | 316 kts | 180° |
| 2026-05-01 12:18 | 48.45357 | 6.69508 | 23250 ft | 320 kts | 180° |
| 2026-05-01 12:18 | 48.43140 | 6.69423 | 23249 ft | 323 kts | 180° |
| 2026-05-01 12:18 | 48.40885 | 6.69338 | 23253 ft | 325 kts | 180° |
| 2026-05-01 12:18 | 48.38606 | 6.69251 | 23249 ft | 328 kts | 180° |
| 2026-05-01 12:19 | 48.36340 | 6.69163 | 23250 ft | 329 kts | 180° |
| 2026-05-01 12:19 | 48.34035 | 6.69074 | 23249 ft | 331 kts | 180° |
| 2026-05-01 12:19 | 48.31723 | 6.68985 | 23249 ft | 332 kts | 180° |
| 2026-05-01 12:19 | 48.29419 | 6.68897 | 23253 ft | 333 kts | 180° |
| 2026-05-01 12:20 | 48.27107 | 6.68808 | 23257 ft | 334 kts | 180° |
| 2026-05-01 12:20 | 48.24759 | 6.68717 | 23250 ft | 335 kts | 180° |
| 2026-05-01 12:20 | 48.22455 | 6.68629 | 23252 ft | 336 kts | 180° |
| 2026-05-01 12:20 | 48.20100 | 6.68539 | 23255 ft | 336 kts | 180° |
| 2026-05-01 12:21 | 48.17775 | 6.68450 | 23254 ft | 336 kts | 180° |
| 2026-05-01 12:21 | 48.15431 | 6.68361 | 23253 ft | 337 kts | 180° |
| 2026-05-01 12:21 | 48.13114 | 6.68272 | 23256 ft | 337 kts | 180° |
| 2026-05-01 12:21 | 48.10767 | 6.68183 | 23261 ft | 337 kts | 180° |
| 2026-05-01 12:22 | 48.08420 | 6.68094 | 23261 ft | 337 kts | 180° |
| 2026-05-01 12:22 | 48.06073 | 6.68005 | 23254 ft | 337 kts | 180° |
| 2026-05-01 12:22 | 48.03748 | 6.67917 | 23257 ft | 337 kts | 180° |
| 2026-05-01 12:22 | 48.01395 | 6.67828 | 23261 ft | 337 kts | 180° |
| 2026-05-01 12:23 | 47.99083 | 6.67740 | 23264 ft | 337 kts | 180° |
| 2026-05-01 12:23 | 47.96743 | 6.67651 | 23263 ft | 336 kts | 180° |
| 2026-05-01 12:23 | 47.94394 | 6.67563 | 23263 ft | 336 kts | 180° |
| 2026-05-01 12:23 | 47.92067 | 6.67475 | 23262 ft | 336 kts | 180° |
| 2026-05-01 12:24 | 47.89729 | 6.67386 | 23261 ft | 335 kts | 180° |
| 2026-05-01 12:24 | 47.87412 | 6.67299 | 23257 ft | 335 kts | 180° |
| 2026-05-01 12:24 | 47.85090 | 6.67211 | 23253 ft | 335 kts | 180° |
| 2026-05-01 12:24 | 47.82762 | 6.67124 | 23246 ft | 335 kts | 180° |
| 2026-05-01 12:25 | 47.80439 | 6.67037 | 23249 ft | 335 kts | 180° |
| 2026-05-01 12:25 | 47.75771 | 6.66861 | 23250 ft | 335 kts | 180° |
| 2026-05-01 12:25 | 47.73426 | 6.66773 | 23248 ft | 336 kts | 180° |
| 2026-05-01 12:26 | 47.71107 | 6.66686 | 23247 ft | 336 kts | 180° |
| 2026-05-01 12:26 | 47.66435 | 6.66511 | 23245 ft | 335 kts | 180° |
| 2026-05-01 12:26 | 47.64102 | 6.66424 | 23246 ft | 335 kts | 180° |
| 2026-05-01 12:27 | 47.61800 | 6.66338 | 23250 ft | 335 kts | 180° |
| 2026-05-01 12:27 | 47.57106 | 6.66163 | 23250 ft | 335 kts | 180° |
| 2026-05-01 12:28 | 47.52454 | 6.65980 | 23250 ft | 336 kts | 180° |
| 2026-05-01 12:28 | 47.50124 | 6.65892 | 23251 ft | 336 kts | 180° |
| 2026-05-01 12:28 | 47.45451 | 6.65723 | 23254 ft | 336 kts | 180° |
| 2026-05-01 12:29 | 47.43136 | 6.65639 | 23255 ft | 336 kts | 180° |
| 2026-05-01 12:29 | 47.40800 | 6.65554 | 23256 ft | 336 kts | 180° |
| 2026-05-01 12:29 | 47.36133 | 6.65382 | 23250 ft | 337 kts | 180° |
| 2026-05-01 12:30 | 47.31432 | 6.65210 | 23249 ft | 337 kts | 180° |
| 2026-05-01 12:30 | 47.29091 | 6.65123 | 23256 ft | 337 kts | 180° |
| 2026-05-01 12:30 | 47.26762 | 6.65039 | 23253 ft | 337 kts | 180° |
| 2026-05-01 12:31 | 47.24404 | 6.64952 | 23258 ft | 337 kts | 180° |
| 2026-05-01 12:31 | 47.22087 | 6.64642 | 23228 ft | 339 kts | 193° |
| 2026-05-01 12:31 | 47.20025 | 6.63049 | 23281 ft | 339 kts | 217° |
| 2026-05-01 12:31 | 47.18234 | 6.60783 | 23272 ft | 340 kts | 221° |
| 2026-05-01 12:32 | 47.16466 | 6.58462 | 23270 ft | 340 kts | 221° |
| 2026-05-01 12:32 | 47.12952 | 6.53839 | 23272 ft | 341 kts | 220° |
| 2026-05-01 12:32 | 47.11194 | 6.51532 | 23268 ft | 341 kts | 220° |
| 2026-05-01 12:33 | 47.09415 | 6.49202 | 23260 ft | 341 kts | 220° |
| 2026-05-01 12:33 | 47.07659 | 6.46902 | 23255 ft | 341 kts | 220° |
| 2026-05-01 12:33 | 47.05885 | 6.44583 | 23247 ft | 341 kts | 220° |
| 2026-05-01 12:33 | 47.04134 | 6.42297 | 23254 ft | 340 kts | 220° |
| 2026-05-01 12:34 | 47.02363 | 6.39987 | 23254 ft | 340 kts | 220° |
| 2026-05-01 12:34 | 47.00596 | 6.37684 | 23253 ft | 340 kts | 220° |
| 2026-05-01 12:34 | 46.98837 | 6.35396 | 23244 ft | 340 kts | 220° |
| 2026-05-01 12:34 | 46.97064 | 6.33089 | 23242 ft | 339 kts | 219° |
| 2026-05-01 12:35 | 46.95293 | 6.30789 | 23239 ft | 339 kts | 219° |
| 2026-05-01 12:35 | 46.93543 | 6.28517 | 23237 ft | 339 kts | 219° |
| 2026-05-01 12:35 | 46.91785 | 6.26239 | 23234 ft | 338 kts | 220° |
| 2026-05-01 12:35 | 46.91208 | 6.25490 | 23236 ft | 338 kts | 219° |
| 2026-05-01 12:36 | 46.88273 | 6.21673 | 23238 ft | 337 kts | 220° |
| 2026-05-01 12:36 | 46.86526 | 6.19394 | 23242 ft | 336 kts | 220° |
| 2026-05-01 12:36 | 46.84782 | 6.17121 | 23246 ft | 336 kts | 219° |
| 2026-05-01 12:36 | 46.83037 | 6.14849 | 23249 ft | 335 kts | 219° |
| 2026-05-01 12:37 | 46.81285 | 6.12570 | 23250 ft | 335 kts | 220° |
| 2026-05-01 12:37 | 46.79538 | 6.10300 | 23247 ft | 335 kts | 219° |
| 2026-05-01 12:37 | 46.77820 | 6.08071 | 23248 ft | 334 kts | 219° |
| 2026-05-01 12:37 | 46.76075 | 6.05807 | 23245 ft | 334 kts | 219° |
| 2026-05-01 12:38 | 46.74336 | 6.03554 | 23245 ft | 334 kts | 219° |
| 2026-05-01 12:38 | 46.72582 | 6.01285 | 23244 ft | 334 kts | 219° |
| 2026-05-01 12:38 | 46.70862 | 5.99061 | 23205 ft | 335 kts | 219° |
| 2026-05-01 12:38 | 46.69095 | 5.96778 | 23082 ft | 338 kts | 219° |
| 2026-05-01 12:39 | 46.67351 | 5.94527 | 22949 ft | 336 kts | 219° |
| 2026-05-01 12:39 | 46.65614 | 5.92290 | 22850 ft | 332 kts | 219° |
| 2026-05-01 12:39 | 46.63886 | 5.90073 | 22595 ft | 334 kts | 219° |
| 2026-05-01 12:39 | 46.62150 | 5.87846 | 22208 ft | 337 kts | 219° |
| 2026-05-01 12:40 | 46.60359 | 5.85574 | 21728 ft | 341 kts | 218° |
| 2026-05-01 12:40 | 46.58324 | 5.83858 | 20779 ft | 346 kts | 194° |
| 2026-05-01 12:40 | 46.56004 | 5.83756 | 20506 ft | 330 kts | 168° |
| 2026-05-01 12:40 | 46.53941 | 5.85065 | 20171 ft | 322 kts | 149° |
| 2026-05-01 12:41 | 46.52059 | 5.86804 | 19734 ft | 321 kts | 147° |
| 2026-05-01 12:41 | 46.50198 | 5.88585 | 19305 ft | 319 kts | 146° |
| 2026-05-01 12:41 | 46.48350 | 5.90383 | 18870 ft | 317 kts | 146° |
| 2026-05-01 12:41 | 46.46547 | 5.92149 | 18448 ft | 316 kts | 146° |
| 2026-05-01 12:42 | 46.44729 | 5.93938 | 18039 ft | 314 kts | 146° |
| 2026-05-01 12:42 | 46.42941 | 5.95706 | 17623 ft | 313 kts | 145° |
| 2026-05-01 12:42 | 46.41151 | 5.97479 | 17207 ft | 311 kts | 145° |
| 2026-05-01 12:42 | 46.39369 | 5.99247 | 16793 ft | 310 kts | 145° |
| 2026-05-01 12:43 | 46.37598 | 6.01007 | 16378 ft | 309 kts | 145° |
| 2026-05-01 12:43 | 46.35720 | 6.02563 | 15605 ft | 320 kts | 160° |
| 2026-05-01 12:43 | 46.33528 | 6.02718 | 15195 ft | 318 kts | 189° |
| 2026-05-01 12:43 | 46.31563 | 6.01323 | 14825 ft | 318 kts | 217° |
| 2026-05-01 12:44 | 46.29934 | 5.99141 | 14403 ft | 318 kts | 222° |
| 2026-05-01 12:44 | 46.28385 | 5.96922 | 13983 ft | 316 kts | 223° |
| 2026-05-01 12:44 | 46.25291 | 5.92437 | 13144 ft | 314 kts | 223° |
| 2026-05-01 12:45 | 46.22250 | 5.88026 | 12312 ft | 305 kts | 224° |
| 2026-05-01 12:45 | 46.20770 | 5.85879 | 11912 ft | 301 kts | 224° |
| 2026-05-01 12:45 | 46.19294 | 5.83739 | 11511 ft | 298 kts | 224° |
| 2026-05-01 12:46 | 46.17851 | 5.81648 | 11119 ft | 295 kts | 224° |
| 2026-05-01 12:46 | 46.16410 | 5.79560 | 10719 ft | 292 kts | 224° |
| 2026-05-01 12:46 | 46.15001 | 5.77518 | 10340 ft | 290 kts | 224° |
| 2026-05-01 12:46 | 46.13598 | 5.75491 | 9946 ft | 282 kts | 224° |
| 2026-05-01 12:47 | 46.12228 | 5.73526 | 9543 ft | 273 kts | 223° |
| 2026-05-01 12:47 | 46.10664 | 5.72068 | 8825 ft | 273 kts | 195° |
| 2026-05-01 12:47 | 46.08845 | 5.72138 | 8475 ft | 258 kts | 160° |
| 2026-05-01 12:47 | 46.07377 | 5.73492 | 8178 ft | 243 kts | 140° |
| 2026-05-01 12:48 | 46.06132 | 5.75040 | 7867 ft | 232 kts | 137° |
| 2026-05-01 12:48 | 46.04959 | 5.76554 | 7555 ft | 221 kts | 137° |
| 2026-05-01 12:48 | 46.03897 | 5.78066 | 7235 ft | 212 kts | 126° |
| 2026-05-01 12:48 | 46.03382 | 5.79979 | 6707 ft | 211 kts | 96° |
| 2026-05-01 12:49 | 46.03474 | 5.82073 | 6168 ft | 211 kts | 67° |
| 2026-05-01 12:49 | 46.04436 | 5.83490 | 5908 ft | 194 kts | 27° |
| 2026-05-01 12:49 | 46.05515 | 5.84484 | 5740 ft | 174 kts | 44° |
| 2026-05-01 12:49 | 46.06330 | 5.85642 | 5524 ft | 162 kts | 41° |
| 2026-05-01 12:50 | 46.07165 | 5.86704 | 5383 ft | 157 kts | 44° |
| 2026-05-01 12:50 | 46.07930 | 5.87800 | 5241 ft | 151 kts | 45° |
| 2026-05-01 12:50 | 46.08680 | 5.88875 | 5166 ft | 152 kts | 46° |
| 2026-05-01 12:50 | 46.09442 | 5.89986 | 5095 ft | 159 kts | 45° |
| 2026-05-01 12:51 | 46.10234 | 5.91108 | 4925 ft | 159 kts | 45° |
| 2026-05-01 12:51 | 46.11017 | 5.92230 | 4711 ft | 160 kts | 45° |
| 2026-05-01 12:51 | 46.12548 | 5.94454 | 4172 ft | 153 kts | 45° |
| 2026-05-01 12:52 | 46.13289 | 5.95531 | 3933 ft | 147 kts | 45° |
| 2026-05-01 12:52 | 46.14652 | 5.97522 | 3485 ft | 131 kts | 45° |
| 2026-05-01 12:52 | 46.15277 | 5.98433 | 3222 ft | 131 kts | 45° |
| 2026-05-01 12:53 | 46.16667 | 6.00483 | 3037 ft | 146 kts | 44° |
| 2026-05-01 12:53 | 46.17383 | 6.01510 | 2856 ft | 143 kts | 45° |
| 2026-05-01 12:53 | 46.18080 | 6.02534 | 2681 ft | 142 kts | 45° |
| 2026-05-01 12:54 | 46.18764 | 6.03532 | 2502 ft | 141 kts | 45° |
| 2026-05-01 12:54 | 46.20124 | 6.05518 | 2146 ft | 136 kts | 46° |
| 2026-05-01 12:54 | 46.20785 | 6.06497 | 1971 ft | 135 kts | 45° |
| 2026-05-01 12:55 | 46.22166 | 6.08487 | 1611 ft | 142 kts | 46° |
| 2026-05-01 12:55 | 46.22837 | 6.09471 | 1423 ft | 135 kts | 46° |
| 2026-05-01 12:55 | 46.23406 | 6.10312 | 1384 ft | 90 kts | 46° |
| 2026-05-01 12:56 | 46.23761 | 6.10832 | 1378 ft | 60 kts | 43° |
| 2026-05-01 12:56 | 46.23828 | 6.11066 | 1377 ft | 16 kts | 162° |
| 2026-05-01 12:56 | 46.23730 | 6.11091 | 1379 ft | 11 kts | 191° |
| 2026-05-01 12:56 | 46.23673 | 6.11033 | 1380 ft | 8 kts | 225° |
| 2026-05-01 12:57 | 46.23637 | 6.10981 | 1381 ft | 7 kts | 225° |
| 2026-05-01 12:57 | 46.23537 | 6.10832 | 1383 ft | 14 kts | 225° |
| 2026-05-01 12:57 | 46.23463 | 6.10724 | 1385 ft | 13 kts | 223° |
| 2026-05-01 12:58 | 46.23390 | 6.10740 | 1387 ft | 13 kts | 131° |
| 2026-05-01 12:58 | 46.23325 | 6.10800 | 1390 ft | 9 kts | 184° |
| 2026-05-01 12:58 | 46.23264 | 6.10777 | 1391 ft | 13 kts | 196° |
| 2026-05-01 12:59 | 46.23117 | 6.10586 | 1393 ft | 12 kts | 224° |
| 2026-05-01 12:59 | 46.23059 | 6.10503 | 1392 ft | 11 kts | 224° |
| 2026-05-01 12:59 | 46.23049 | 6.10404 | 1391 ft | 7 kts | 1° |
| 2026-05-01 13:00 | 46.23064 | 6.10405 | 1391 ft | 0 kts | 0° |